Time;durP1;ratioP1;P1;durP2;ratioP2;P2;SDS_P1;SDS_P2;PMS_P1;PMS_P2;Temp;Humidity;BMP_temperature;BMP_pressure;BME280_temperature;BME280_humidity;BME280_pressure;Samples;Min_cycle;Max_cycle;Signal;HPM_P1;HPM_P2
2023/09/18 00:01:30;;;;;;;29.38;27.58;;;;;;;16.39;100.00;101676.94;4984564;28;20633;-78
2023/09/18 00:04:15;;;;;;;28.73;26.92;;;;;;;16.31;100.00;101682.59;4986771;28;20058;-85
2023/09/18 00:06:41;;;;;;;32.50;30.50;;;;;;;16.00;100.00;101672.75;4986635;28;20054;-85
2023/09/18 00:09:11;;;;;;;33.13;30.83;;;;;;;15.38;100.00;101683.25;4977788;28;20583;-84
2023/09/18 00:11:39;;;;;;;31.65;29.55;;;;;;;15.89;100.00;101678.84;4986044;28;20054;-86
2023/09/18 00:14:17;;;;;;;27.58;25.83;;;;;;;16.05;100.00;101677.47;4980002;28;20133;-77
2023/09/18 00:16:44;;;;;;;31.05;29.05;;;;;;;15.83;100.00;101672.47;4983757;28;20050;-79
2023/09/18 00:19:12;;;;;;;31.23;29.23;;;;;;;15.87;100.00;101667.50;4975475;28;20440;-85
2023/09/18 00:21:39;;;;;;;30.48;28.38;;;;;;;15.75;100.00;101678.09;4987091;28;20054;-85
2023/09/18 00:24:11;;;;;;;30.20;28.30;;;;;;;15.85;100.00;101674.94;4987823;28;20062;-78
2023/09/18 00:26:38;;;;;;;31.95;30.00;;;;;;;15.75;100.00;101680.78;4989421;28;20500;-85
2023/09/18 00:29:08;;;;;;;31.15;29.15;;;;;;;15.55;100.00;101672.81;4983743;28;20054;-85
2023/09/18 00:31:45;;;;;;;28.85;26.95;;;;;;;15.82;100.00;101681.53;4984094;28;20073;-85
2023/09/18 00:34:12;;;;;;;29.17;27.38;;;;;;;15.61;100.00;101679.19;4987920;28;20073;-85
2023/09/18 00:36:39;;;;;;;31.85;29.85;;;;;;;15.72;100.00;101673.19;4989811;28;20141;-85
2023/09/18 00:39:06;;;;;;;32.80;30.70;;;;;;;15.66;100.00;101674.00;4981078;28;20059;-85
2023/09/18 00:41:37;;;;;;;30.25;28.45;;;;;;;15.71;100.00;101679.56;4986709;28;20053;-86
2023/09/18 00:44:08;;;;;;;28.57;26.87;;;;;;;15.66;100.00;101682.84;4990685;28;20796;-78
2023/09/18 00:46:36;;;;;;;32.13;30.02;;;;;;;15.52;100.00;101675.94;4987030;28;20046;-78
2023/09/18 00:49:08;;;;;;;29.67;27.88;;;;;;;15.47;100.00;101671.25;4991624;28;20046;-78
2023/09/18 00:51:41;;;;;;;29.45;27.65;;;;;;;15.41;100.00;101676.66;4983889;28;20049;-86
2023/09/18 00:54:08;;;;;;;28.05;26.15;;;;;;;15.19;100.00;101678.78;4982152;28;20108;-78
2023/09/18 00:56:38;;;;;;;32.75;30.85;;;;;;;15.20;100.00;101669.75;4986350;28;20050;-78
2023/09/18 00:59:05;;;;;;;28.33;26.63;;;;;;;15.31;100.00;101669.06;4993765;28;20064;-78
2023/09/18 01:01:43;;;;;;;27.80;26.00;;;;;;;15.23;100.00;101669.31;4982345;28;20051;-78
2023/09/18 01:04:13;;;;;;;26.70;25.00;;;;;;;14.95;100.00;101672.31;4991306;28;20054;-78
2023/09/18 01:06:42;;;;;;;32.20;30.40;;;;;;;15.08;100.00;101674.94;4985689;28;20061;-85
2023/09/18 01:09:14;;;;;;;33.30;31.40;;;;;;;15.04;100.00;101677.22;4991066;28;20054;-85
2023/09/18 01:11:50;;;;;;;32.90;31.10;;;;;;;15.14;100.00;101674.09;4990519;28;20444;-85
2023/09/18 01:14:22;;;;;;;29.00;27.50;;;;;;;15.01;100.00;101674.16;4987303;28;20054;-78
2023/09/18 01:16:54;;;;;;;32.17;30.35;;;;;;;14.74;100.00;101673.44;4990208;28;20110;-86
2023/09/18 01:22:18;;;;;;;29.33;27.25;;;;;;;14.66;100.00;101664.59;5107869;27;20416;-84
2023/09/18 01:24:48;;;;;;;28.30;26.60;;;;;;;14.95;100.00;101665.13;5110046;28;20051;-84
2023/09/18 01:27:18;;;;;;;27.40;25.70;;;;;;;15.03;100.00;101664.88;5104577;28;20247;-77
2023/09/18 01:29:54;;;;;;;27.30;25.60;;;;;;;14.84;100.00;101658.56;5099039;28;20062;-77
2023/09/18 01:32:26;;;;;;;26.10;24.50;;;;;;;14.99;100.00;101654.81;5101597;28;20073;-84
2023/09/18 01:34:57;;;;;;;24.58;23.17;;;;;;;15.02;100.00;101651.72;5108587;28;20131;-77
2023/09/18 01:37:26;;;;;;;29.63;27.83;;;;;;;14.64;100.00;101653.31;5106669;28;20124;-77
2023/09/18 01:40:01;;;;;;;29.15;27.05;;;;;;;14.80;100.00;101651.19;5099770;28;20047;-79
2023/09/18 01:42:28;;;;;;;24.98;23.38;;;;;;;14.63;100.00;101662.34;5100038;28;20048;-84
2023/09/18 01:44:58;;;;;;;25.25;23.65;;;;;;;14.48;100.00;101663.56;5106298;28;20519;-83
2023/09/18 01:47:26;;;;;;;26.75;24.95;;;;;;;14.49;100.00;101660.69;5101201;28;20529;-77
2023/09/18 01:49:53;;;;;;;25.55;23.85;;;;;;;14.70;100.00;101662.31;5105210;28;20101;-77
2023/09/18 01:52:25;;;;;;;27.23;25.42;;;;;;;14.77;100.00;101662.31;5094559;28;20044;-84
2023/09/18 01:54:52;;;;;;;27.65;25.95;;;;;;;14.78;100.00;101670.09;5106901;28;20426;-84
2023/09/18 01:57:21;;;;;;;33.30;31.40;;;;;;;14.80;100.00;101672.59;5103445;28;20055;-83
2023/09/18 01:59:47;;;;;;;39.00;36.90;;;;;;;14.72;100.00;101672.81;5108339;28;20142;-83
2023/09/18 02:02:17;;;;;;;43.20;40.90;;;;;;;14.79;100.00;101669.06;5102100;28;20050;-84
2023/09/18 02:04:45;;;;;;;41.03;38.63;;;;;;;14.66;100.00;101675.28;5099116;28;20046;-83
2023/09/18 02:07:15;;;;;;;46.53;43.63;;;;;;;14.77;100.00;101686.38;5103786;28;20424;-83
2023/09/18 02:09:42;;;;;;;45.13;42.53;;;;;;;14.56;100.00;101677.56;5097702;28;20481;-84
2023/09/18 02:12:09;;;;;;;40.28;38.00;;;;;;;14.37;100.00;101683.72;5092187;28;20047;-84
2023/09/18 02:14:53;;;;;;;37.58;35.17;;;;;;;14.25;100.00;101682.72;5088251;28;20547;-84
2023/09/18 02:17:31;;;;;;;47.90;45.20;;;;;;;14.40;100.00;101681.47;5099699;28;20056;-84
2023/09/18 02:19:59;;;;;;;41.97;39.47;;;;;;;14.40;100.00;101681.47;5099859;28;20126;-83
2023/09/18 02:22:29;;;;;;;37.35;35.05;;;;;;;14.37;100.00;101683.72;5091553;28;20055;-84
2023/09/18 02:24:56;;;;;;;41.28;38.90;;;;;;;14.35;100.00;101691.16;5091691;28;20056;-84
2023/09/18 02:27:22;;;;;;;37.63;35.33;;;;;;;14.34;100.00;101685.00;5096734;28;20044;-83
2023/09/18 02:29:54;;;;;;;34.47;32.38;;;;;;;14.52;100.00;101691.56;5104391;28;20048;-83
2023/09/18 02:32:43;;;;;;;33.80;31.83;;;;;;;14.29;100.00;101686.63;5089370;28;20043;-83
2023/09/18 02:35:11;;;;;;;34.10;32.10;;;;;;;14.34;100.00;101692.16;5055486;28;20118;-84
2023/09/18 02:37:38;;;;;;;34.10;31.90;;;;;;;14.40;100.00;101692.19;5094594;28;20139;-83
2023/09/18 02:40:07;;;;;;;34.40;32.40;;;;;;;14.31;100.00;101697.91;5079844;28;20069;-84
2023/09/18 02:42:36;;;;;;;34.33;32.35;;;;;;;14.18;100.00;101698.75;5088172;28;20032;-84
2023/09/18 02:45:09;;;;;;;37.42;35.42;;;;;;;14.22;100.00;101700.00;5091616;28;20048;-84
2023/09/18 02:47:37;;;;;;;35.45;33.55;;;;;;;14.13;100.00;101701.22;5083602;28;20052;-83
2023/09/18 02:50:08;;;;;;;31.80;30.00;;;;;;;14.11;100.00;101713.97;5078110;28;20056;-83
2023/09/18 02:52:35;;;;;;;30.80;29.00;;;;;;;14.07;100.00;101710.03;5084194;28;20425;-84
2023/09/18 02:55:02;;;;;;;34.28;32.17;;;;;;;14.04;100.00;101707.78;5085036;28;20050;-84
2023/09/18 02:57:28;;;;;;;35.63;33.58;;;;;;;14.00;100.00;101706.56;5084018;28;20542;-83
2023/09/18 02:59:55;;;;;;;35.15;33.00;;;;;;;13.98;100.00;101707.59;5077307;28;20040;-84
2023/09/18 03:02:24;;;;;;;29.55;27.95;;;;;;;13.85;100.00;101715.56;5087541;28;20048;-83
2023/09/18 03:04:51;;;;;;;33.30;31.50;;;;;;;13.61;100.00;101716.13;5083627;28;20044;-83
2023/09/18 03:07:18;;;;;;;31.50;29.70;;;;;;;13.55;100.00;101708.94;5081981;28;20048;-84
2023/09/18 03:09:44;;;;;;;33.55;31.65;;;;;;;13.48;100.00;101712.41;5087407;28;20058;-83
2023/09/18 03:12:11;;;;;;;29.25;27.55;;;;;;;13.76;100.00;101719.47;5086496;28;20046;-84
2023/09/18 03:14:38;;;;;;;27.40;25.70;;;;;;;13.03;100.00;101721.84;5086999;28;20044;-84
2023/09/18 03:17:16;;;;;;;25.33;23.92;;;;;;;13.59;100.00;101712.88;5087613;28;20056;-84
2023/09/18 03:19:48;;;;;;;25.58;24.17;;;;;;;13.51;100.00;101719.19;5090803;28;20522;-77
2023/09/18 03:22:15;;;;;;;27.35;25.85;;;;;;;13.62;100.00;101725.81;5085945;28;20048;-77
2023/09/18 03:24:42;;;;;;;25.67;24.17;;;;;;;13.77;100.00;101726.47;5090347;28;20044;-76
2023/09/18 03:27:09;;;;;;;27.00;24.25;;;;;;;13.65;100.00;101730.75;5082505;28;20047;-84
2023/09/18 03:29:46;;;;;;;24.45;23.25;;;;;;;13.65;100.00;101725.41;5088665;28;20048;-83
2023/09/18 03:32:13;;;;;;;26.50;25.10;;;;;;;13.48;100.00;101724.94;5090908;28;20040;-83
2023/09/18 03:34:41;;;;;;;24.05;22.65;;;;;;;13.45;100.00;101730.69;5080909;28;20051;-83
2023/09/18 03:37:09;;;;;;;29.40;27.80;;;;;;;13.45;100.00;101731.50;5083033;28;20132;-84
2023/09/18 03:39:36;;;;;;;27.73;26.27;;;;;;;13.44;100.00;101732.53;5087282;28;20046;-84
2023/09/18 03:42:03;;;;;;;27.17;25.77;;;;;;;13.61;100.00;101740.16;5085188;28;20454;-83
2023/09/18 03:44:30;;;;;;;31.67;30.00;;;;;;;13.54;100.00;101736.66;5082382;28;20439;-83
2023/09/18 03:46:57;;;;;;;25.13;23.83;;;;;;;13.58;100.00;101735.22;5089190;28;20056;-84
2023/09/18 03:49:24;;;;;;;26.58;25.27;;;;;;;13.55;100.00;101736.44;5084376;28;20078;-84
2023/09/18 03:51:51;;;;;;;28.90;27.50;;;;;;;13.52;100.00;101739.53;5085886;28;20519;-84
2023/09/18 03:54:19;;;;;;;28.73;27.42;;;;;;;13.47;100.00;101733.97;5087653;28;20067;-84
2023/09/18 03:56:47;;;;;;;38.03;34.72;;;;;;;13.21;100.00;101751.47;5080700;28;20435;-84
2023/09/18 03:59:14;;;;;;;49.90;44.70;;;;;;;13.13;100.00;101742.81;5084579;28;20048;-83
2023/09/18 04:01:41;;;;;;;43.78;39.28;;;;;;;13.44;100.00;101751.22;5081145;28;20130;-84
2023/09/18 04:04:08;;;;;;;27.48;26.17;;;;;;;13.43;100.00;101756.72;5080476;28;20661;-84
2023/09/18 04:06:38;;;;;;;19.90;18.60;;;;;;;13.52;100.00;101758.19;5080137;28;20468;-85
2023/09/18 04:09:05;;;;;;;19.10;18.00;;;;;;;13.33;100.00;101754.44;5083600;28;20090;-86
2023/09/18 04:11:41;;;;;;;21.23;19.90;;;;;;;12.84;100.00;101761.53;5085053;28;20052;-86
2023/09/18 04:14:08;;;;;;;30.92;28.45;;;;;;;20.45;100.00;101758.72;5085881;28;20051;-84
2023/09/18 04:16:41;;;;;;;20.17;18.98;;;;;;;14.54;100.00;101753.66;5089742;28;20036;-84
2023/09/18 04:19:11;;;;;;;19.67;18.67;;;;;;;13.56;100.00;101754.13;5086879;28;20051;-84
2023/09/18 04:21:39;;;;;;;20.05;19.05;;;;;;;13.45;100.00;101757.38;5085039;28;20036;-85
2023/09/18 04:24:06;;;;;;;19.88;18.88;;;;;;;13.35;100.00;101756.91;5086386;28;20054;-85
2023/09/18 04:26:34;;;;;;;18.55;17.60;;;;;;;13.07;100.00;101749.75;5086173;28;20488;-85
2023/09/18 04:29:02;;;;;;;17.65;16.75;;;;;;;13.31;100.00;101756.47;5088648;28;20044;-85
2023/09/18 04:31:29;;;;;;;18.75;17.75;;;;;;;13.43;100.00;101762.88;5082336;28;20055;-84
2023/09/18 04:33:56;;;;;;;18.67;17.67;;;;;;;13.34;100.00;101760.59;5082057;28;20487;-85
2023/09/18 04:36:23;;;;;;;17.95;17.05;;;;;;;13.33;100.00;101764.28;5082039;28;20044;-85
2023/09/18 04:38:50;;;;;;;21.77;20.27;;;;;;;13.42;100.00;101761.25;5084209;28;20130;-85
2023/09/18 04:41:17;;;;;;;20.67;19.48;;;;;;;13.44;100.00;101767.22;5083195;28;20862;-84
2023/09/18 04:43:45;;;;;;;20.40;19.30;;;;;;;13.00;100.00;101757.72;5082571;28;20500;-78
2023/09/18 04:46:12;;;;;;;21.90;20.70;;;;;;;12.72;100.00;101768.44;5080576;28;20042;-78
2023/09/18 04:48:39;;;;;;;21.48;20.33;;;;;;;12.98;100.00;101777.59;5087386;28;20059;-78
2023/09/18 04:51:06;;;;;;;20.60;19.50;;;;;;;13.32;100.00;101773.34;5079869;28;20044;-78
2023/09/18 04:53:33;;;;;;;21.63;20.40;;;;;;;13.59;100.00;101766.25;5084583;28;20036;-78
2023/09/18 04:56:00;;;;;;;23.33;22.13;;;;;;;14.19;100.00;101772.53;5083833;28;20045;-85
2023/09/18 04:58:27;;;;;;;22.98;21.67;;;;;;;14.32;100.00;101777.91;5081616;28;20131;-85
2023/09/18 05:00:56;;;;;;;21.75;20.55;;;;;;;14.46;100.00;101762.66;5079915;28;20043;-78
2023/09/18 05:03:23;;;;;;;25.42;23.92;;;;;;;14.65;100.00;101764.56;5079162;28;20048;-78
2023/09/18 05:05:50;;;;;;;22.00;20.70;;;;;;;14.77;100.00;101763.94;5087205;28;20048;-83
2023/09/18 05:08:17;;;;;;;21.60;20.40;;;;;;;14.95;100.00;101763.25;5082083;28;20044;-83
2023/09/18 05:10:44;;;;;;;23.40;22.05;;;;;;;15.10;100.00;101755.81;5083051;28;20046;-78
2023/09/18 05:13:12;;;;;;;23.45;22.05;;;;;;;15.09;100.00;101757.66;5085301;28;20044;-82
2023/09/18 05:15:41;;;;;;;23.48;22.17;;;;;;;15.37;100.00;101755.72;5085164;28;20139;-82
2023/09/18 05:18:09;;;;;;;25.05;23.55;;;;;;;15.52;100.00;101759.78;5085740;28;20056;-82
2023/09/18 05:20:37;;;;;;;27.52;25.40;;;;;;;15.55;100.00;101751.31;5088081;28;20503;-83
2023/09/18 05:23:06;;;;;;;24.50;23.10;;;;;;;15.73;100.00;101753.31;5085297;28;20467;-83
2023/09/18 05:25:38;;;;;;;26.45;24.95;;;;;;;15.52;100.00;101759.78;5087411;28;20048;-82
2023/09/18 05:28:05;;;;;;;25.60;24.07;;;;;;;15.70;100.00;101753.75;5084827;28;20048;-82
2023/09/18 05:30:34;;;;;;;25.65;24.25;;;;;;;15.92;100.00;101758.78;5083837;28;20732;-83
2023/09/18 05:33:04;;;;;;;25.60;24.20;;;;;;;15.98;100.00;101756.03;5082508;28;20331;-82
2023/09/18 05:35:33;;;;;;;32.33;30.63;;;;;;;16.17;100.00;101764.97;5086909;28;20044;-82
2023/09/18 05:38:00;;;;;;;34.00;32.20;;;;;;;16.42;100.00;101754.25;5086853;28;20071;-82
2023/09/18 05:40:29;;;;;;;27.50;26.00;;;;;;;16.43;100.00;101750.53;5085604;28;20055;-82
2023/09/18 05:42:57;;;;;;;30.65;29.08;;;;;;;16.89;100.00;101756.53;5087354;28;20056;-83
2023/09/18 05:45:24;;;;;;;30.73;29.23;;;;;;;17.22;100.00;101763.41;5087086;28;20568;-82
2023/09/18 05:47:53;;;;;;;30.45;28.95;;;;;;;17.55;100.00;101757.59;5083948;28;20137;-83
2023/09/18 05:50:20;;;;;;;32.58;30.98;;;;;;;17.74;100.00;101756.50;5083262;28;20074;-83
2023/09/18 05:52:49;;;;;;;40.85;38.85;;;;;;;17.83;100.00;101757.84;5079240;28;20048;-83
2023/09/18 05:55:16;;;;;;;35.08;33.28;;;;;;;17.93;100.00;101757.28;5078175;28;20527;-78
2023/09/18 05:57:43;;;;;;;35.90;34.20;;;;;;;17.82;100.00;101756.22;5076217;28;20427;-78
2023/09/18 06:00:13;;;;;;;35.45;33.72;;;;;;;18.12;100.00;101762.59;5082760;28;20053;-78
2023/09/18 06:02:39;;;;;;;35.60;33.78;;;;;;;18.21;100.00;101766.59;5074958;28;20040;-83
2023/09/18 06:05:11;;;;;;;39.15;37.15;;;;;;;18.09;100.00;101769.25;5084473;28;20512;-83
2023/09/18 06:07:38;;;;;;;34.90;33.00;;;;;;;18.73;100.00;101767.59;5084028;28;20091;-82
2023/09/18 06:10:07;;;;;;;37.45;35.45;;;;;;;19.20;100.00;101758.63;5083342;28;20048;-83
2023/09/18 06:12:34;;;;;;;45.75;41.28;;;;;;;19.30;100.00;101764.22;5083350;28;20431;-82
2023/09/18 06:15:01;;;;;;;42.58;40.58;;;;;;;19.47;100.00;101764.28;5087321;28;20047;-83
2023/09/18 06:17:28;;;;;;;43.25;41.13;;;;;;;19.83;100.00;101770.38;5090153;28;20518;-83
2023/09/18 06:19:55;;;;;;;39.85;37.95;;;;;;;20.13;100.00;101759.31;5094063;28;20152;-83
2023/09/18 06:22:22;;;;;;;38.17;36.28;;;;;;;20.41;100.00;101757.59;5078015;28;20040;-83
2023/09/18 06:24:49;;;;;;;39.85;37.85;;;;;;;20.61;100.00;101767.91;5089680;28;20527;-78
2023/09/18 06:27:18;;;;;;;34.92;33.03;;;;;;;20.27;100.00;101757.09;5085840;28;20051;-78
2023/09/18 06:29:45;;;;;;;34.15;32.45;;;;;;;20.32;100.00;101763.38;5088798;28;20135;-78
2023/09/18 06:32:17;;;;;;;36.45;34.65;;;;;;;20.79;100.00;101771.16;5091827;28;20423;-78
2023/09/18 06:34:44;;;;;;;35.35;33.60;;;;;;;20.52;100.00;101765.63;5082974;28;20120;-83
2023/09/18 06:37:12;;;;;;;33.55;31.85;;;;;;;20.68;100.00;101763.97;5085302;28;20412;-84
2023/09/18 06:39:46;;;;;;;37.03;35.17;;;;;;;20.72;100.00;101759.69;5088522;28;20043;-84
2023/09/18 06:42:13;;;;;;;36.90;35.00;;;;;;;20.62;100.00;101747.94;5090010;28;20074;-78
2023/09/18 06:44:41;;;;;;;34.58;32.78;;;;;;;20.87;100.00;101748.28;5084983;28;20065;-78
2023/09/18 06:47:08;;;;;;;38.53;36.22;;;;;;;21.01;100.00;101762.25;5085384;28;20048;-78
2023/09/18 06:49:37;;;;;;;31.52;29.92;;;;;;;21.06;100.00;101765.03;5090875;28;20044;-83
2023/09/18 06:52:04;;;;;;;31.30;29.60;;;;;;;21.16;100.00;101757.03;5093336;28;20138;-78
2023/09/18 06:54:31;;;;;;;31.75;30.05;;;;;;;21.18;100.00;101760.31;5087440;28;20051;-77
2023/09/18 06:56:58;;;;;;;34.05;32.35;;;;;;;21.46;100.00;101753.09;5080337;28;20044;-78
2023/09/18 06:59:25;;;;;;;35.45;33.65;;;;;;;21.43;100.00;101749.00;5080464;28;20070;-78
2023/09/18 07:01:53;;;;;;;35.03;33.22;;;;;;;21.85;100.00;101752.94;5082020;28;20048;-79
2023/09/18 07:04:21;;;;;;;34.00;32.20;;;;;;;21.99;100.00;101745.22;5086782;28;20056;-78
2023/09/18 07:06:48;;;;;;;23.20;22.00;;;;;;;22.29;100.00;101760.91;5085995;28;20118;-78
2023/09/18 07:09:22;;;;;;;22.98;21.77;;;;;;;22.06;100.00;101757.47;5091546;28;20051;-78
2023/09/18 07:11:48;;;;;;;42.72;40.63;;;;;;;22.19;100.00;101756.25;5076608;28;20083;-83
2023/09/18 07:14:15;;;;;;;38.80;36.60;;;;;;;22.46;100.00;101761.59;5082876;28;20082;-84
2023/09/18 07:16:42;;;;;;;37.60;35.60;;;;;;;22.58;100.00;101764.09;5087867;28;20070;-84
2023/09/18 07:19:11;;;;;;;37.97;35.92;;;;;;;22.83;100.00;101755.31;5086429;28;20055;-84
2023/09/18 07:21:40;;;;;;;36.22;34.13;;;;;;;23.24;100.00;101753.63;5082154;28;20047;-85
2023/09/18 07:24:07;;;;;;;37.58;35.58;;;;;;;22.95;100.00;101750.53;5088823;28;20134;-84
2023/09/18 07:26:34;;;;;;;37.17;35.08;;;;;;;23.08;100.00;101749.22;5088378;28;20044;-84
2023/09/18 07:29:01;;;;;;;41.28;39.08;;;;;;;23.20;100.00;101746.28;5087800;28;20044;-84
2023/09/18 07:31:28;;;;;;;36.00;34.00;;;;;;;23.36;100.00;101747.13;5091200;28;20048;-78
2023/09/18 07:33:55;;;;;;;35.72;33.83;;;;;;;23.30;100.00;101747.16;5086287;28;20122;-78
2023/09/18 07:36:23;;;;;;;35.33;33.42;;;;;;;23.35;100.00;101753.66;5080552;28;20043;-79
2023/09/18 07:38:50;;;;;;;26.10;24.70;;;;;;;23.87;100.00;101748.06;5084699;28;20048;-78
2023/09/18 07:41:17;;;;;;;23.92;22.63;;;;;;;23.82;100.00;101747.28;5087819;28;20050;-78
2023/09/18 07:43:44;;;;;;;23.35;22.02;;;;;;;24.10;100.00;101754.88;5085655;28;20434;-78
2023/09/18 07:46:11;;;;;;;32.75;30.95;;;;;;;24.03;100.00;101746.19;5077468;28;20071;-77
2023/09/18 07:48:37;;;;;;;41.13;39.03;;;;;;;24.38;100.00;101741.81;5078487;28;20373;-78
2023/09/18 07:51:05;;;;;;;37.33;35.22;;;;;;;24.22;100.00;101744.56;5082802;28;20056;-78
2023/09/18 07:53:33;;;;;;;35.67;33.65;;;;;;;24.60;100.00;101746.97;5081097;28;20044;-78
2023/09/18 07:56:01;;;;;;;35.13;33.13;;;;;;;24.84;100.00;101761.59;5080383;28;20051;-78
2023/09/18 07:58:28;;;;;;;34.90;32.90;;;;;;;25.26;100.00;101746.75;5082782;28;20036;-78
2023/09/18 08:00:56;;;;;;;34.83;32.92;;;;;;;25.14;100.00;101748.97;5072677;28;20040;-78
2023/09/18 08:03:23;;;;;;;23.33;22.00;;;;;;;25.33;100.00;101751.88;5078698;28;20044;-78
2023/09/18 08:05:51;;;;;;;22.27;20.88;;;;;;;25.34;100.00;101748.06;5081108;28;20044;-78
2023/09/18 08:08:25;;;;;;;22.95;21.55;;;;;;;25.30;100.00;101750.53;5085147;28;20118;-85
2023/09/18 08:10:54;;;;;;;22.70;21.30;;;;;;;25.62;100.00;101748.44;5075329;28;20040;-84
2023/09/18 08:13:23;;;;;;;34.17;32.28;;;;;;;25.91;100.00;101733.03;5092309;28;20101;-84
2023/09/18 08:15:50;;;;;;;36.38;34.38;;;;;;;25.99;100.00;101747.91;5090495;28;20048;-78
2023/09/18 08:18:20;;;;;;;28.77;27.23;;;;;;;26.37;100.00;101746.22;5093214;28;20051;-83
2023/09/18 08:20:47;;;;;;;23.00;21.70;;;;;;;26.39;100.00;101741.31;5092587;28;20044;-84
2023/09/18 08:23:14;;;;;;;23.65;22.35;;;;;;;26.12;100.00;101733.66;5079918;28;20050;-84
2023/09/18 08:25:41;;;;;;;23.90;22.50;;;;;;;26.46;100.00;101730.88;5083555;28;20054;-85
2023/09/18 08:28:10;;;;;;;21.85;20.55;;;;;;;26.30;100.00;101740.31;5081723;28;20048;-78
2023/09/18 08:30:40;;;;;;;22.77;21.48;;;;;;;25.88;100.00;101725.44;5080272;28;20046;-78
2023/09/18 08:33:07;;;;;;;36.13;34.22;;;;;;;26.71;100.00;101709.91;5082564;28;20040;-78
2023/09/18 08:35:34;;;;;;;39.10;36.90;;;;;;;26.67;100.00;101728.75;5077333;28;20227;-78
2023/09/18 08:38:02;;;;;;;38.97;36.97;;;;;;;27.04;100.00;101723.69;5087427;28;20051;-78
2023/09/18 08:40:29;;;;;;;40.63;38.35;;;;;;;26.67;100.00;101733.41;5084855;28;20098;-77
2023/09/18 08:42:59;;;;;;;25.05;23.45;;;;;;;26.41;100.00;101721.94;5081207;28;20043;-78
2023/09/18 08:45:35;;;;;;;27.55;25.85;;;;;;;26.49;100.00;101718.63;5080789;28;20056;-79
2023/09/18 08:48:02;;;;;;;26.85;25.25;;;;;;;26.48;100.00;101722.44;5079747;28;20044;-77
2023/09/18 08:50:30;;;;;;;43.03;40.58;;;;;;;26.66;100.00;101721.69;5083496;28;20036;-78
2023/09/18 08:52:57;;;;;;;44.40;41.80;;;;;;;26.51;100.00;101719.16;5078321;28;20044;-79
2023/09/18 08:55:25;;;;;;;25.88;24.27;;;;;;;26.46;100.00;101713.72;5080491;28;20059;-79
2023/09/18 08:57:54;;;;;;;26.20;24.40;;;;;;;26.49;100.00;101707.72;5077826;28;20048;-79
2023/09/18 09:00:21;;;;;;;25.50;23.80;;;;;;;27.21;100.00;101694.03;5085853;28;20049;-78
2023/09/18 09:02:52;;;;;;;26.75;24.70;;;;;;;27.12;100.00;101707.50;5085197;28;20132;-77
2023/09/18 09:05:19;;;;;;;34.13;31.92;;;;;;;27.13;100.00;101708.28;5075988;28;20500;-77
2023/09/18 09:07:46;;;;;;;38.92;36.83;;;;;;;27.46;100.00;101716.59;5087728;28;20044;-78
2023/09/18 09:10:13;;;;;;;36.45;34.25;;;;;;;27.60;100.00;101693.72;5085297;28;20074;-78
2023/09/18 09:12:53;;;;;;;33.88;31.77;;;;;;;27.27;100.00;101695.59;5081937;28;20052;-78
2023/09/18 09:15:20;;;;;;;34.97;32.78;;;;;;;28.25;100.00;101686.63;5085781;28;20048;-78
2023/09/18 09:17:48;;;;;;;37.83;35.53;;;;;;;29.22;100.00;101688.19;5079144;28;20052;-78
2023/09/18 09:20:18;;;;;;;37.53;35.22;;;;;;;28.07;100.00;101680.13;5083739;28;20052;-78
2023/09/18 09:22:45;;;;;;;38.47;35.72;;;;;;;27.56;100.00;101675.50;5079064;28;20945;-78
2023/09/18 09:25:31;;;;;;;42.05;39.65;;;;;;;27.75;100.00;101679.00;5077020;28;20060;-78
2023/09/18 09:27:59;;;;;;;30.92;28.90;;;;;;;27.33;100.00;101682.69;5080886;28;20048;-78
2023/09/18 09:30:27;;;;;;;31.30;29.30;;;;;;;27.54;100.00;101685.91;5074094;28;20060;-78
2023/09/18 09:32:56;;;;;;;26.00;24.30;;;;;;;27.63;100.00;101684.13;5079610;28;20040;-78
2023/09/18 09:35:28;;;;;;;26.75;25.05;;;;;;;27.09;100.00;101671.81;5081185;28;20423;-78
2023/09/18 09:37:57;;;;;;;24.90;23.40;;;;;;;26.33;100.00;101679.81;5085285;28;20045;-78
2023/09/18 09:40:24;;;;;;;27.67;25.98;;;;;;;26.55;100.00;101679.31;5077922;28;20055;-78
2023/09/18 09:43:01;;;;;;;26.20;24.40;;;;;;;27.17;100.00;101668.44;5083040;28;20051;-78
2023/09/18 09:45:30;;;;;;;27.63;25.92;;;;;;;27.06;100.00;101670.50;5086266;28;20075;-83
2023/09/18 09:47:58;;;;;;;26.83;25.02;;;;;;;27.22;100.00;101651.22;5080533;28;20040;-83
2023/09/18 09:50:27;;;;;;;27.02;25.42;;;;;;;26.86;100.00;101647.03;5086484;28;20048;-83
2023/09/18 09:52:56;;;;;;;27.63;25.92;;;;;;;27.49;100.00;101658.72;5086495;28;20044;-78
2023/09/18 09:55:25;;;;;;;22.38;21.08;;;;;;;27.79;100.00;101652.78;5086845;28;20443;-84
2023/09/18 09:57:57;;;;;;;24.38;23.08;;;;;;;28.45;100.00;101655.41;5087865;28;20056;-84
2023/09/18 10:00:32;;;;;;;26.25;24.85;;;;;;;28.54;100.00;101648.13;5088417;28;20040;-84
2023/09/18 10:03:02;;;;;;;27.33;25.83;;;;;;;27.55;100.00;101660.25;5080598;28;20078;-82
2023/09/18 10:05:32;;;;;;;25.67;24.17;;;;;;;27.65;100.00;101651.88;5086285;28;20052;-83
2023/09/18 10:08:00;;;;;;;21.15;19.85;;;;;;;27.85;100.00;101639.84;5087292;28;20097;-77
2023/09/18 10:10:32;;;;;;;41.90;39.80;;;;;;;28.20;99.01;101643.00;5088380;28;20551;-78
2023/09/18 10:13:03;;;;;;;45.95;43.55;;;;;;;27.38;100.00;101649.88;5081720;28;20096;-84
2023/09/18 10:15:38;;;;;;;41.80;39.50;;;;;;;27.85;100.00;101634.38;5084303;28;20139;-78
2023/09/18 10:18:08;;;;;;;46.65;44.35;;;;;;;28.41;98.12;101629.78;5091298;28;20899;-77
2023/09/18 10:20:43;;;;;;;28.40;26.90;;;;;;;28.89;90.22;101632.03;5089133;28;20044;-85
2023/09/18 10:23:27;;;;;;;27.88;26.27;;;;;;;27.88;100.00;101631.06;5087035;28;20531;-84
2023/09/18 10:26:03;;;;;;;32.20;30.40;;;;;;;28.21;100.00;101618.16;5083962;28;20055;-78
2023/09/18 10:28:31;;;;;;;28.60;26.63;;;;;;;29.34;100.00;101618.44;5086015;28;20040;-78
2023/09/18 10:30:59;;;;;;;31.67;29.88;;;;;;;29.92;94.85;101612.03;5086618;28;20488;-78
2023/09/18 10:33:34;;;;;;;39.95;37.75;;;;;;;29.17;100.00;101617.22;5083037;28;20048;-78
2023/09/18 10:36:04;;;;;;;36.65;34.45;;;;;;;29.06;92.98;101615.84;5085243;28;20041;-84
2023/09/18 10:38:32;;;;;;;28.90;27.20;;;;;;;29.09;100.00;101617.94;5085913;28;20143;-83
2023/09/18 10:40:59;;;;;;;29.20;27.60;;;;;;;28.82;100.00;101618.00;5086849;28;20051;-83
2023/09/18 10:43:26;;;;;;;33.53;31.73;;;;;;;28.17;100.00;101608.94;5089902;28;20044;-84
2023/09/18 10:45:54;;;;;;;29.40;27.65;;;;;;;28.64;100.00;101608.81;5091952;28;20040;-86
2023/09/18 10:48:23;;;;;;;28.42;26.73;;;;;;;29.06;100.00;101601.34;5077220;28;20056;-85
2023/09/18 10:50:51;;;;;;;28.58;26.90;;;;;;;29.16;97.46;101610.09;5082092;28;20047;-85
2023/09/18 10:53:22;;;;;;;35.22;33.30;;;;;;;28.48;95.89;101606.44;5084552;28;20135;-78
2023/09/18 10:55:51;;;;;;;37.28;35.33;;;;;;;27.59;100.00;101609.44;5088792;28;20044;-83
2023/09/18 10:58:26;;;;;;;34.78;32.63;;;;;;;27.93;100.00;101598.22;5079498;28;20047;-78
2023/09/18 11:01:01;;;;;;;28.95;27.15;;;;;;;28.69;99.54;101592.31;5086670;28;20562;-78
2023/09/18 11:03:29;;;;;;;28.70;27.00;;;;;;;29.12;100.00;101586.44;5082422;28;20040;-78
2023/09/18 11:06:07;;;;;;;32.53;30.83;;;;;;;29.65;91.20;101586.50;5084184;28;20044;-77
2023/09/18 11:08:45;;;;;;;31.55;29.77;;;;;;;30.78;78.54;101575.88;5084522;28;20045;-78
2023/09/18 11:11:14;;;;;;;29.90;28.30;;;;;;;30.50;75.72;101599.19;5083023;28;20052;-77
2023/09/18 11:13:42;;;;;;;32.65;30.85;;;;;;;30.34;83.40;101582.41;5080057;28;20565;-77